sensor_id;sensor_type;location;lat;lon;timestamp;temperature;humidity
49242;DHT22;35079;52.704;13.814;2023-12-04T10:40:10;0.30;99.90
49242;DHT22;35079;52.704;13.814;2023-12-04T10:42:39;0.40;99.90
49242;DHT22;35079;52.704;13.814;2023-12-04T10:49:07;0.40;99.90
49242;DHT22;35079;52.704;13.814;2023-12-04T10:51:38;0.50;99.90
49242;DHT22;35079;52.704;13.814;2023-12-04T10:54:04;0.50;99.90
49242;DHT22;35079;52.704;13.814;2023-12-04T10:56:38;0.50;99.90
49242;DHT22;35079;52.704;13.814;2023-12-04T10:59:14;0.50;99.90
49242;DHT22;35079;52.704;13.814;2023-12-04T11:01:53;0.60;99.90
49242;DHT22;35079;52.704;13.814;2023-12-04T11:04:23;0.70;99.90
49242;DHT22;35079;52.704;13.814;2023-12-04T11:06:54;0.70;99.90
49242;DHT22;35079;52.704;13.814;2023-12-04T11:09:21;0.70;99.90
49242;DHT22;35079;52.704;13.814;2023-12-04T11:11:51;0.90;99.90
49242;DHT22;35079;52.704;13.814;2023-12-04T11:14:21;0.90;99.90
49242;DHT22;35079;52.704;13.814;2023-12-04T11:16:53;0.90;99.90
49242;DHT22;35079;52.704;13.814;2023-12-04T11:19:35;0.90;99.90
49242;DHT22;35079;52.704;13.814;2023-12-04T11:22:04;0.80;99.90
49242;DHT22;35079;52.704;13.814;2023-12-04T11:24:32;0.70;99.90
49242;DHT22;35079;52.704;13.814;2023-12-04T11:26:58;0.70;99.90
49242;DHT22;35079;52.704;13.814;2023-12-04T11:29:24;0.70;99.90
49242;DHT22;35079;52.704;13.814;2023-12-04T11:31:50;0.70;99.90
49242;DHT22;35079;52.704;13.814;2023-12-04T11:34:16;0.50;99.90
49242;DHT22;35079;52.704;13.814;2023-12-04T11:36:42;0.50;99.90
49242;DHT22;35079;52.704;13.814;2023-12-04T11:39:09;0.50;99.90
49242;DHT22;35079;52.704;13.814;2023-12-04T11:41:36;0.60;99.90
49242;DHT22;35079;52.704;13.814;2023-12-04T11:44:03;0.60;99.90
49242;DHT22;35079;52.704;13.814;2023-12-04T11:46:29;0.70;99.90
49242;DHT22;35079;52.704;13.814;2023-12-04T11:49:27;0.60;99.90
49242;DHT22;35079;52.704;13.814;2023-12-04T11:52:06;0.60;99.90
49242;DHT22;35079;52.704;13.814;2023-12-04T11:55:01;0.50;99.90
49242;DHT22;35079;52.704;13.814;2023-12-04T11:57:35;0.50;99.90
49242;DHT22;35079;52.704;13.814;2023-12-04T12:02:33;0.60;99.90
49242;DHT22;35079;52.704;13.814;2023-12-04T12:04:59;0.50;99.90
49242;DHT22;35079;52.704;13.814;2023-12-04T12:07:24;0.40;99.90
49242;DHT22;35079;52.704;13.814;2023-12-04T12:09:50;0.30;99.90
49242;DHT22;35079;52.704;13.814;2023-12-04T12:12:16;0.40;99.90
49242;DHT22;35079;52.704;13.814;2023-12-04T12:14:42;0.40;99.90
49242;DHT22;35079;52.704;13.814;2023-12-04T12:17:08;0.60;99.90
49242;DHT22;35079;52.704;13.814;2023-12-04T12:19:34;0.50;99.90
49242;DHT22;35079;52.704;13.814;2023-12-04T12:22:00;0.60;99.90
49242;DHT22;35079;52.704;13.814;2023-12-04T12:24:25;0.50;99.90
49242;DHT22;35079;52.704;13.814;2023-12-04T12:26:51;0.50;99.90
49242;DHT22;35079;52.704;13.814;2023-12-04T12:29:17;0.40;99.90
49242;DHT22;35079;52.704;13.814;2023-12-04T12:31:43;0.40;99.90
49242;DHT22;35079;52.704;13.814;2023-12-04T12:34:09;0.40;99.90
49242;DHT22;35079;52.704;13.814;2023-12-04T12:36:34;0.40;99.90
49242;DHT22;35079;52.704;13.814;2023-12-04T12:39:00;0.20;99.90
49242;DHT22;35079;52.704;13.814;2023-12-04T12:41:30;0.20;99.90
49242;DHT22;35079;52.704;13.814;2023-12-04T12:43:56;0.30;99.90
49242;DHT22;35079;52.704;13.814;2023-12-04T12:46:22;0.30;99.90
49242;DHT22;35079;52.704;13.814;2023-12-04T12:48:48;0.40;99.90
49242;DHT22;35079;52.704;13.814;2023-12-04T12:51:13;0.10;99.90
49242;DHT22;35079;52.704;13.814;2023-12-04T12:53:40;0.00;99.90
49242;DHT22;35079;52.704;13.814;2023-12-04T12:56:06;0.10;99.90
49242;DHT22;35079;52.704;13.814;2023-12-04T12:58:33;0.20;99.90
49242;DHT22;35079;52.704;13.814;2023-12-04T13:01:00;0.10;99.90
49242;DHT22;35079;52.704;13.814;2023-12-04T13:03:25;0.10;99.90
49242;DHT22;35079;52.704;13.814;2023-12-04T13:05:51;0.10;99.90
49242;DHT22;35079;52.704;13.814;2023-12-04T13:08:16;0.20;99.90
49242;DHT22;35079;52.704;13.814;2023-12-04T13:10:42;0.30;99.90
49242;DHT22;35079;52.704;13.814;2023-12-04T13:13:13;0.20;99.90
49242;DHT22;35079;52.704;13.814;2023-12-04T13:15:39;0.10;99.90
49242;DHT22;35079;52.704;13.814;2023-12-04T13:18:06;0.10;99.90
49242;DHT22;35079;52.704;13.814;2023-12-04T13:20:32;0.00;99.90
49242;DHT22;35079;52.704;13.814;2023-12-04T13:23:00;0.10;99.90
49242;DHT22;35079;52.704;13.814;2023-12-04T13:25:25;0.00;99.90
49242;DHT22;35079;52.704;13.814;2023-12-04T13:27:51;-0.10;99.90
49242;DHT22;35079;52.704;13.814;2023-12-04T13:30:17;-0.10;99.90
49242;DHT22;35079;52.704;13.814;2023-12-04T13:32:43;-0.10;99.90
49242;DHT22;35079;52.704;13.814;2023-12-04T13:35:08;-0.10;99.90
49242;DHT22;35079;52.704;13.814;2023-12-04T13:37:34;-0.10;99.90
49242;DHT22;35079;52.704;13.814;2023-12-04T13:40:05;0.00;99.90
49242;DHT22;35079;52.704;13.814;2023-12-04T13:42:38;0.00;99.90
49242;DHT22;35079;52.704;13.814;2023-12-04T13:45:22;0.00;99.90
49242;DHT22;35079;52.704;13.814;2023-12-04T13:47:48;-0.10;99.90
49242;DHT22;35079;52.704;13.814;2023-12-04T13:50:14;-0.20;99.90
49242;DHT22;35079;52.704;13.814;2023-12-04T13:52:40;-0.20;99.90
49242;DHT22;35079;52.704;13.814;2023-12-04T13:55:08;-0.30;99.90
49242;DHT22;35079;52.704;13.814;2023-12-04T13:57:45;-0.20;99.90
49242;DHT22;35079;52.704;13.814;2023-12-04T14:00:29;-0.30;99.90
49242;DHT22;35079;52.704;13.814;2023-12-04T14:02:55;-0.20;99.90
49242;DHT22;35079;52.704;13.814;2023-12-04T14:05:30;-0.20;99.90
49242;DHT22;35079;52.704;13.814;2023-12-04T14:07:55;-0.20;99.90
49242;DHT22;35079;52.704;13.814;2023-12-04T14:10:22;-0.20;99.90
49242;DHT22;35079;52.704;13.814;2023-12-04T14:12:47;-0.30;99.90
49242;DHT22;35079;52.704;13.814;2023-12-04T14:15:13;-0.20;99.90
49242;DHT22;35079;52.704;13.814;2023-12-04T14:17:39;-0.30;99.90
49242;DHT22;35079;52.704;13.814;2023-12-04T14:20:06;-0.30;99.90
49242;DHT22;35079;52.704;13.814;2023-12-04T14:22:42;-0.30;99.90
49242;DHT22;35079;52.704;13.814;2023-12-04T14:25:08;-0.40;99.90
49242;DHT22;35079;52.704;13.814;2023-12-04T14:27:34;-0.50;99.90
49242;DHT22;35079;52.704;13.814;2023-12-04T14:30:01;-0.50;99.90
49242;DHT22;35079;52.704;13.814;2023-12-04T14:32:27;-0.60;99.90
49242;DHT22;35079;52.704;13.814;2023-12-04T14:34:53;-0.40;99.90
49242;DHT22;35079;52.704;13.814;2023-12-04T14:37:19;-0.60;99.90
49242;DHT22;35079;52.704;13.814;2023-12-04T14:39:45;-0.60;99.90
49242;DHT22;35079;52.704;13.814;2023-12-04T14:42:11;-0.60;99.90
49242;DHT22;35079;52.704;13.814;2023-12-04T14:44:36;-0.60;99.90
49242;DHT22;35079;52.704;13.814;2023-12-04T14:47:02;-0.80;99.90
49242;DHT22;35079;52.704;13.814;2023-12-04T14:49:29;-0.70;99.90
49242;DHT22;35079;52.704;13.814;2023-12-04T14:51:56;-0.80;99.90
49242;DHT22;35079;52.704;13.814;2023-12-04T14:54:22;-0.70;99.90
49242;DHT22;35079;52.704;13.814;2023-12-04T14:57:02;-0.80;99.90
49242;DHT22;35079;52.704;13.814;2023-12-04T14:59:39;-0.80;99.90
49242;DHT22;35079;52.704;13.814;2023-12-04T15:02:11;-0.80;99.90
49242;DHT22;35079;52.704;13.814;2023-12-04T15:04:37;-0.90;99.90
49242;DHT22;35079;52.704;13.814;2023-12-04T15:07:21;-0.90;99.90
49242;DHT22;35079;52.704;13.814;2023-12-04T15:10:05;-0.90;99.90
49242;DHT22;35079;52.704;13.814;2023-12-04T15:12:31;-0.90;99.90
49242;DHT22;35079;52.704;13.814;2023-12-04T15:15:12;-1.00;99.90
49242;DHT22;35079;52.704;13.814;2023-12-04T15:17:57;-0.90;99.90
49242;DHT22;35079;52.704;13.814;2023-12-04T15:20:43;-0.90;99.90
49242;DHT22;35079;52.704;13.814;2023-12-04T15:23:10;-0.90;99.90
49242;DHT22;35079;52.704;13.814;2023-12-04T15:25:35;-0.90;99.90
49242;DHT22;35079;52.704;13.814;2023-12-04T15:28:02;-0.90;99.90
49242;DHT22;35079;52.704;13.814;2023-12-04T15:30:33;-1.00;99.90
49242;DHT22;35079;52.704;13.814;2023-12-04T15:32:59;-1.00;99.90
49242;DHT22;35079;52.704;13.814;2023-12-04T15:35:24;-1.00;99.90
49242;DHT22;35079;52.704;13.814;2023-12-04T15:37:50;-1.00;99.90
49242;DHT22;35079;52.704;13.814;2023-12-04T15:40:16;-1.00;99.90
49242;DHT22;35079;52.704;13.814;2023-12-04T15:42:41;-1.00;99.90
49242;DHT22;35079;52.704;13.814;2023-12-04T15:45:07;-1.00;99.90
49242;DHT22;35079;52.704;13.814;2023-12-04T15:47:33;-1.00;99.90
49242;DHT22;35079;52.704;13.814;2023-12-04T15:49:58;-1.00;99.90
49242;DHT22;35079;52.704;13.814;2023-12-04T15:52:24;-1.00;99.90
49242;DHT22;35079;52.704;13.814;2023-12-04T15:54:52;-1.10;99.90
49242;DHT22;35079;52.704;13.814;2023-12-04T15:57:17;-1.10;99.90
49242;DHT22;35079;52.704;13.814;2023-12-04T15:59:43;-0.90;99.90
49242;DHT22;35079;52.704;13.814;2023-12-04T16:02:12;-1.10;99.90
49242;DHT22;35079;52.704;13.814;2023-12-04T16:04:37;-1.10;99.90
49242;DHT22;35079;52.704;13.814;2023-12-04T16:07:03;-1.10;99.90
49242;DHT22;35079;52.704;13.814;2023-12-04T16:09:29;-1.10;99.90
49242;DHT22;35079;52.704;13.814;2023-12-04T16:11:54;-1.10;99.90
49242;DHT22;35079;52.704;13.814;2023-12-04T16:14:20;-1.10;99.90
49242;DHT22;35079;52.704;13.814;2023-12-04T16:16:45;-1.20;99.90
49242;DHT22;35079;52.704;13.814;2023-12-04T16:19:11;-1.10;99.90
49242;DHT22;35079;52.704;13.814;2023-12-04T16:21:36;-1.10;99.90
49242;DHT22;35079;52.704;13.814;2023-12-04T16:24:03;-1.10;99.90
49242;DHT22;35079;52.704;13.814;2023-12-04T16:26:29;-1.00;99.90
49242;DHT22;35079;52.704;13.814;2023-12-04T16:28:57;-1.10;99.90
49242;DHT22;35079;52.704;13.814;2023-12-04T16:31:22;-1.00;99.90
49242;DHT22;35079;52.704;13.814;2023-12-04T16:33:48;-1.10;99.90
49242;DHT22;35079;52.704;13.814;2023-12-04T16:36:15;-1.20;99.90
49242;DHT22;35079;52.704;13.814;2023-12-04T16:38:41;-1.30;99.90
49242;DHT22;35079;52.704;13.814;2023-12-04T16:41:06;-1.20;99.90
49242;DHT22;35079;52.704;13.814;2023-12-04T16:43:33;-1.10;99.90
49242;DHT22;35079;52.704;13.814;2023-12-04T16:45:59;-1.20;99.90
49242;DHT22;35079;52.704;13.814;2023-12-04T16:48:25;-1.20;99.90
49242;DHT22;35079;52.704;13.814;2023-12-04T16:50:50;-1.20;99.90
49242;DHT22;35079;52.704;13.814;2023-12-04T16:53:16;-1.20;99.90
49242;DHT22;35079;52.704;13.814;2023-12-04T16:55:41;-1.30;99.90
49242;DHT22;35079;52.704;13.814;2023-12-04T16:58:07;-1.10;99.90
49242;DHT22;35079;52.704;13.814;2023-12-04T17:00:33;-1.30;99.90
49242;DHT22;35079;52.704;13.814;2023-12-04T17:03:01;-1.30;99.90
49242;DHT22;35079;52.704;13.814;2023-12-04T17:05:27;-1.20;99.90
49242;DHT22;35079;52.704;13.814;2023-12-04T17:07:53;-1.10;99.90
49242;DHT22;35079;52.704;13.814;2023-12-04T17:10:19;-1.30;99.90
49242;DHT22;35079;52.704;13.814;2023-12-04T17:12:46;-1.20;99.90
49242;DHT22;35079;52.704;13.814;2023-12-04T17:15:13;-1.30;99.90
49242;DHT22;35079;52.704;13.814;2023-12-04T17:17:39;-1.30;99.90
49242;DHT22;35079;52.704;13.814;2023-12-04T17:20:07;-1.30;99.90
49242;DHT22;35079;52.704;13.814;2023-12-04T17:22:33;-1.30;99.90
49242;DHT22;35079;52.704;13.814;2023-12-04T17:25:00;-1.40;99.90
49242;DHT22;35079;52.704;13.814;2023-12-04T17:27:25;-1.30;99.90
49242;DHT22;35079;52.704;13.814;2023-12-04T17:29:51;-1.40;99.90
49242;DHT22;35079;52.704;13.814;2023-12-04T17:32:17;-1.40;99.90
49242;DHT22;35079;52.704;13.814;2023-12-04T17:34:43;-1.30;99.90
49242;DHT22;35079;52.704;13.814;2023-12-04T17:37:09;-1.40;99.90
49242;DHT22;35079;52.704;13.814;2023-12-04T17:39:34;-1.40;99.90
49242;DHT22;35079;52.704;13.814;2023-12-04T17:42:00;-1.60;99.90
49242;DHT22;35079;52.704;13.814;2023-12-04T17:44:26;-1.50;99.90
49242;DHT22;35079;52.704;13.814;2023-12-04T17:46:52;-1.40;99.90
49242;DHT22;35079;52.704;13.814;2023-12-04T17:49:17;-1.30;99.90
49242;DHT22;35079;52.704;13.814;2023-12-04T17:51:43;-1.60;99.90
49242;DHT22;35079;52.704;13.814;2023-12-04T17:54:09;-1.70;99.90
49242;DHT22;35079;52.704;13.814;2023-12-04T17:56:34;-1.50;99.90
49242;DHT22;35079;52.704;13.814;2023-12-04T17:59:00;-1.60;99.90
49242;DHT22;35079;52.704;13.814;2023-12-04T18:01:27;-1.70;99.90
49242;DHT22;35079;52.704;13.814;2023-12-04T18:03:53;-1.70;99.90
49242;DHT22;35079;52.704;13.814;2023-12-04T18:06:29;-1.60;99.90
49242;DHT22;35079;52.704;13.814;2023-12-04T18:08:56;-1.60;99.90
49242;DHT22;35079;52.704;13.814;2023-12-04T18:11:22;-1.60;99.90
49242;DHT22;35079;52.704;13.814;2023-12-04T18:13:48;-1.70;99.90
49242;DHT22;35079;52.704;13.814;2023-12-04T18:16:14;-1.70;99.90
49242;DHT22;35079;52.704;13.814;2023-12-04T18:18:39;-1.70;99.90
49242;DHT22;35079;52.704;13.814;2023-12-04T18:21:08;-1.70;99.90
49242;DHT22;35079;52.704;13.814;2023-12-04T18:23:34;-1.70;99.90
49242;DHT22;35079;52.704;13.814;2023-12-04T18:25:59;-1.70;99.90
49242;DHT22;35079;52.704;13.814;2023-12-04T18:28:26;-1.70;99.90
49242;DHT22;35079;52.704;13.814;2023-12-04T18:30:52;-1.70;99.90
49242;DHT22;35079;52.704;13.814;2023-12-04T18:33:18;-1.80;99.90
49242;DHT22;35079;52.704;13.814;2023-12-04T18:35:44;-1.90;99.90
49242;DHT22;35079;52.704;13.814;2023-12-04T18:38:13;-1.90;99.90
49242;DHT22;35079;52.704;13.814;2023-12-04T18:40:41;-1.90;99.90
49242;DHT22;35079;52.704;13.814;2023-12-04T18:43:07;-1.90;99.90
49242;DHT22;35079;52.704;13.814;2023-12-04T18:45:33;-1.90;99.90
49242;DHT22;35079;52.704;13.814;2023-12-04T18:48:00;-1.90;99.90
49242;DHT22;35079;52.704;13.814;2023-12-04T18:50:32;-1.90;99.90
49242;DHT22;35079;52.704;13.814;2023-12-04T18:53:02;-1.70;99.90
49242;DHT22;35079;52.704;13.814;2023-12-04T18:55:28;-1.70;99.90
49242;DHT22;35079;52.704;13.814;2023-12-04T18:57:54;-1.80;99.90
49242;DHT22;35079;52.704;13.814;2023-12-04T19:00:19;-1.80;99.90
49242;DHT22;35079;52.704;13.814;2023-12-04T19:02:50;-1.80;99.90
49242;DHT22;35079;52.704;13.814;2023-12-04T19:05:16;-1.90;99.90
49242;DHT22;35079;52.704;13.814;2023-12-04T19:07:42;-1.90;99.90
49242;DHT22;35079;52.704;13.814;2023-12-04T19:10:08;-1.80;99.90
49242;DHT22;35079;52.704;13.814;2023-12-04T19:12:34;-1.90;99.90
49242;DHT22;35079;52.704;13.814;2023-12-04T19:14:59;-2.00;99.90
49242;DHT22;35079;52.704;13.814;2023-12-04T19:17:25;-2.00;99.90
49242;DHT22;35079;52.704;13.814;2023-12-04T19:19:50;-2.00;99.90
49242;DHT22;35079;52.704;13.814;2023-12-04T19:22:16;-2.10;99.90
49242;DHT22;35079;52.704;13.814;2023-12-04T19:24:42;-2.00;99.90
49242;DHT22;35079;52.704;13.814;2023-12-04T19:27:07;-2.00;99.90
49242;DHT22;35079;52.704;13.814;2023-12-04T19:29:33;-2.00;99.90
49242;DHT22;35079;52.704;13.814;2023-12-04T19:31:58;-2.10;99.90
49242;DHT22;35079;52.704;13.814;2023-12-04T19:34:24;-2.00;99.90
49242;DHT22;35079;52.704;13.814;2023-12-04T19:36:51;-2.00;99.90
49242;DHT22;35079;52.704;13.814;2023-12-04T19:39:17;-2.00;99.90
49242;DHT22;35079;52.704;13.814;2023-12-04T19:41:42;-2.00;99.90
49242;DHT22;35079;52.704;13.814;2023-12-04T19:44:08;-2.20;99.90
49242;DHT22;35079;52.704;13.814;2023-12-04T19:46:40;-2.00;99.90
49242;DHT22;35079;52.704;13.814;2023-12-04T19:49:06;-2.20;99.90
49242;DHT22;35079;52.704;13.814;2023-12-04T19:51:31;-2.10;99.90
49242;DHT22;35079;52.704;13.814;2023-12-04T19:53:57;-2.10;99.90
49242;DHT22;35079;52.704;13.814;2023-12-04T19:56:23;-2.20;99.90
49242;DHT22;35079;52.704;13.814;2023-12-04T19:58:48;-2.20;99.90
49242;DHT22;35079;52.704;13.814;2023-12-04T20:01:27;-2.30;99.90
49242;DHT22;35079;52.704;13.814;2023-12-04T20:03:54;-2.20;99.90
49242;DHT22;35079;52.704;13.814;2023-12-04T20:06:20;-2.30;99.90
49242;DHT22;35079;52.704;13.814;2023-12-04T20:08:46;-2.20;99.90
49242;DHT22;35079;52.704;13.814;2023-12-04T20:11:11;-2.20;99.90
49242;DHT22;35079;52.704;13.814;2023-12-04T20:13:37;-2.30;99.90
49242;DHT22;35079;52.704;13.814;2023-12-04T20:16:11;-2.20;99.90
49242;DHT22;35079;52.704;13.814;2023-12-04T20:18:37;-2.30;99.90
49242;DHT22;35079;52.704;13.814;2023-12-04T20:21:03;-2.20;99.90
49242;DHT22;35079;52.704;13.814;2023-12-04T20:23:29;-2.20;99.90
49242;DHT22;35079;52.704;13.814;2023-12-04T20:25:54;-2.30;99.90
49242;DHT22;35079;52.704;13.814;2023-12-04T20:28:20;-2.20;99.90
49242;DHT22;35079;52.704;13.814;2023-12-04T20:30:49;-2.20;99.90
49242;DHT22;35079;52.704;13.814;2023-12-04T20:33:14;-2.20;99.90
49242;DHT22;35079;52.704;13.814;2023-12-04T20:35:45;-2.20;99.90
49242;DHT22;35079;52.704;13.814;2023-12-04T20:38:11;-2.30;99.90
49242;DHT22;35079;52.704;13.814;2023-12-04T20:40:40;-2.20;99.90
49242;DHT22;35079;52.704;13.814;2023-12-04T20:43:06;-2.30;99.90
49242;DHT22;35079;52.704;13.814;2023-12-04T20:45:33;-2.20;99.90
49242;DHT22;35079;52.704;13.814;2023-12-04T20:48:00;-2.20;99.90
49242;DHT22;35079;52.704;13.814;2023-12-04T20:50:26;-2.20;99.90
49242;DHT22;35079;52.704;13.814;2023-12-04T20:52:52;-2.20;99.90
49242;DHT22;35079;52.704;13.814;2023-12-04T20:55:18;-2.20;99.90
49242;DHT22;35079;52.704;13.814;2023-12-04T20:57:44;-2.20;99.90
49242;DHT22;35079;52.704;13.814;2023-12-04T21:00:10;-2.10;99.90
49242;DHT22;35079;52.704;13.814;2023-12-04T21:02:37;-2.00;99.90
49242;DHT22;35079;52.704;13.814;2023-12-04T21:05:04;-2.00;99.90
49242;DHT22;35079;52.704;13.814;2023-12-04T21:07:30;-1.90;99.90
49242;DHT22;35079;52.704;13.814;2023-12-04T21:09:56;-2.00;99.90
49242;DHT22;35079;52.704;13.814;2023-12-04T21:12:21;-2.00;99.90
49242;DHT22;35079;52.704;13.814;2023-12-04T21:14:47;-2.00;99.90
49242;DHT22;35079;52.704;13.814;2023-12-04T21:17:14;-2.00;99.90
49242;DHT22;35079;52.704;13.814;2023-12-04T21:19:39;-1.90;99.90
49242;DHT22;35079;52.704;13.814;2023-12-04T21:22:05;-1.90;99.90
49242;DHT22;35079;52.704;13.814;2023-12-04T21:24:31;-2.00;99.90
49242;DHT22;35079;52.704;13.814;2023-12-04T21:26:56;-2.10;99.90
49242;DHT22;35079;52.704;13.814;2023-12-04T21:29:24;-2.00;99.90
49242;DHT22;35079;52.704;13.814;2023-12-04T21:31:49;-2.00;99.90
49242;DHT22;35079;52.704;13.814;2023-12-04T21:34:16;-2.00;99.90
49242;DHT22;35079;52.704;13.814;2023-12-04T21:36:43;-2.00;99.90
49242;DHT22;35079;52.704;13.814;2023-12-04T21:39:09;-2.00;99.90
49242;DHT22;35079;52.704;13.814;2023-12-04T21:41:37;-2.00;99.90
49242;DHT22;35079;52.704;13.814;2023-12-04T21:44:04;-2.00;99.90
49242;DHT22;35079;52.704;13.814;2023-12-04T21:46:30;-2.00;99.90
49242;DHT22;35079;52.704;13.814;2023-12-04T21:48:56;-2.10;99.90
49242;DHT22;35079;52.704;13.814;2023-12-04T21:51:24;-2.00;99.90
49242;DHT22;35079;52.704;13.814;2023-12-04T21:53:51;-2.00;99.90
49242;DHT22;35079;52.704;13.814;2023-12-04T21:56:17;-2.00;99.90
49242;DHT22;35079;52.704;13.814;2023-12-04T21:58:43;-1.90;99.90
49242;DHT22;35079;52.704;13.814;2023-12-04T22:01:09;-2.00;99.90
49242;DHT22;35079;52.704;13.814;2023-12-04T22:03:34;-2.10;99.90
49242;DHT22;35079;52.704;13.814;2023-12-04T22:06:00;-1.90;99.90
49242;DHT22;35079;52.704;13.814;2023-12-04T22:08:26;-2.10;99.90
49242;DHT22;35079;52.704;13.814;2023-12-04T22:10:52;-2.20;99.90
49242;DHT22;35079;52.704;13.814;2023-12-04T22:13:18;-2.10;99.90
49242;DHT22;35079;52.704;13.814;2023-12-04T22:15:44;-2.30;99.90
49242;DHT22;35079;52.704;13.814;2023-12-04T22:18:09;-2.10;99.90
49242;DHT22;35079;52.704;13.814;2023-12-04T22:20:35;-2.10;99.90
49242;DHT22;35079;52.704;13.814;2023-12-04T22:23:01;-2.10;99.90
49242;DHT22;35079;52.704;13.814;2023-12-04T22:25:26;-2.20;99.90
49242;DHT22;35079;52.704;13.814;2023-12-04T22:27:53;-2.20;99.90
49242;DHT22;35079;52.704;13.814;2023-12-04T22:30:19;-2.30;99.90
49242;DHT22;35079;52.704;13.814;2023-12-04T22:32:44;-2.30;99.90
49242;DHT22;35079;52.704;13.814;2023-12-04T22:35:11;-2.20;99.90
49242;DHT22;35079;52.704;13.814;2023-12-04T22:37:36;-2.30;99.90
49242;DHT22;35079;52.704;13.814;2023-12-04T22:40:04;-2.40;99.90
49242;DHT22;35079;52.704;13.814;2023-12-04T22:42:31;-2.30;99.90
49242;DHT22;35079;52.704;13.814;2023-12-04T22:44:56;-2.40;99.90
49242;DHT22;35079;52.704;13.814;2023-12-04T22:47:22;-2.50;99.90
49242;DHT22;35079;52.704;13.814;2023-12-04T22:49:48;-2.40;99.90
49242;DHT22;35079;52.704;13.814;2023-12-04T22:52:13;-2.40;99.90
49242;DHT22;35079;52.704;13.814;2023-12-04T22:54:39;-2.50;99.90
49242;DHT22;35079;52.704;13.814;2023-12-04T22:57:05;-2.50;99.90
49242;DHT22;35079;52.704;13.814;2023-12-04T22:59:31;-2.40;99.90
49242;DHT22;35079;52.704;13.814;2023-12-04T23:01:57;-2.40;99.90
49242;DHT22;35079;52.704;13.814;2023-12-04T23:04:24;-2.40;99.90
49242;DHT22;35079;52.704;13.814;2023-12-04T23:06:50;-2.30;99.90
49242;DHT22;35079;52.704;13.814;2023-12-04T23:09:16;-2.50;99.90
49242;DHT22;35079;52.704;13.814;2023-12-04T23:11:42;-2.50;99.90
49242;DHT22;35079;52.704;13.814;2023-12-04T23:14:08;-2.50;99.90
49242;DHT22;35079;52.704;13.814;2023-12-04T23:16:33;-2.50;99.90
49242;DHT22;35079;52.704;13.814;2023-12-04T23:18:59;-2.50;99.90
49242;DHT22;35079;52.704;13.814;2023-12-04T23:21:27;-2.50;99.90
49242;DHT22;35079;52.704;13.814;2023-12-04T23:23:53;-2.40;99.90
49242;DHT22;35079;52.704;13.814;2023-12-04T23:26:18;-2.50;99.90
49242;DHT22;35079;52.704;13.814;2023-12-04T23:28:44;-2.40;99.90
49242;DHT22;35079;52.704;13.814;2023-12-04T23:31:11;-2.50;99.90
49242;DHT22;35079;52.704;13.814;2023-12-04T23:33:36;-2.40;99.90
49242;DHT22;35079;52.704;13.814;2023-12-04T23:36:02;-2.50;99.90
49242;DHT22;35079;52.704;13.814;2023-12-04T23:38:29;-2.50;99.90
49242;DHT22;35079;52.704;13.814;2023-12-04T23:40:55;-2.50;99.90
49242;DHT22;35079;52.704;13.814;2023-12-04T23:43:20;-2.50;99.90
49242;DHT22;35079;52.704;13.814;2023-12-04T23:45:46;-2.50;99.90
49242;DHT22;35079;52.704;13.814;2023-12-04T23:48:12;-2.50;99.90
49242;DHT22;35079;52.704;13.814;2023-12-04T23:50:37;-2.60;99.90
49242;DHT22;35079;52.704;13.814;2023-12-04T23:53:03;-2.60;99.90
49242;DHT22;35079;52.704;13.814;2023-12-04T23:55:28;-2.60;99.90
49242;DHT22;35079;52.704;13.814;2023-12-04T23:57:54;-2.60;99.90
